EIN5PE EGBB-LIPX
Flight info
| Callsign | EIN5PE |
|---|---|
| Flight time | N/A |
| Altitude | 37000 |
| Route | ADMEX Y321 EMKUK UL612 COWLY Q70 BIG UL9 KONAN DCT KOK UL607 FERDI DCT REMBA DCT LIRSU DCT KRH DCT BATUB M738 NATAG DCT LORLO DCT MOVOR/N0395F190 T897 IDREK/N0363F130 T897 ANJAT |
| Aircraft | A319/M-SDE3FGHIRWY/LB1 |
Departure
| Time | N/A |
|---|---|
| Airport | Birmingham Airport (EGBB) |
Arrival
| Time | 2026-04-28 17:36 |
|---|---|
| Airport | Verona Villafranca Valerio Catullo Airport (LIPX) |
| Time | Latitude | Longitude | Altitude | Speed | Heading |
|---|---|---|---|---|---|
| 2026-04-28 16:48 | 49.62258 | 7.48189 | 37099 ft | 471 kts | 133° |
| 2026-04-28 16:49 | 49.60126 | 7.52007 | 37100 ft | 470 kts | 133° |
| 2026-04-28 16:49 | 49.55855 | 7.59643 | 37088 ft | 470 kts | 133° |
| 2026-04-28 16:50 | 49.51598 | 7.67199 | 37081 ft | 470 kts | 134° |
| 2026-04-28 16:50 | 49.47298 | 7.74800 | 37080 ft | 470 kts | 134° |
| 2026-04-28 16:51 | 49.43015 | 7.82384 | 37074 ft | 470 kts | 134° |
| 2026-04-28 16:51 | 49.38723 | 7.89973 | 37074 ft | 471 kts | 134° |
| 2026-04-28 16:52 | 49.34411 | 7.97531 | 37071 ft | 471 kts | 134° |
| 2026-04-28 16:52 | 49.30091 | 8.05090 | 37069 ft | 471 kts | 134° |
| 2026-04-28 16:53 | 49.25769 | 8.12643 | 37061 ft | 471 kts | 134° |
| 2026-04-28 16:53 | 49.22173 | 8.18919 | 37057 ft | 472 kts | 134° |
| 2026-04-28 16:54 | 49.17835 | 8.26463 | 37052 ft | 473 kts | 134° |
| 2026-04-28 16:54 | 49.13477 | 8.34005 | 37055 ft | 473 kts | 134° |
| 2026-04-28 16:55 | 49.09123 | 8.41526 | 37052 ft | 473 kts | 134° |
| 2026-04-28 16:55 | 49.04753 | 8.49045 | 37054 ft | 474 kts | 135° |
| 2026-04-28 16:56 | 49.00345 | 8.56528 | 37047 ft | 473 kts | 139° |
| 2026-04-28 16:56 | 48.95219 | 8.62618 | 37053 ft | 466 kts | 150° |
| 2026-04-28 16:57 | 48.89829 | 8.68130 | 37051 ft | 467 kts | 150° |
| 2026-04-28 16:57 | 48.84483 | 8.73618 | 37054 ft | 467 kts | 150° |
| 2026-04-28 16:58 | 48.79097 | 8.79130 | 37059 ft | 468 kts | 150° |
| 2026-04-28 16:58 | 48.73684 | 8.84644 | 37061 ft | 468 kts | 150° |
| 2026-04-28 16:59 | 48.68275 | 8.90131 | 37062 ft | 468 kts | 151° |
| 2026-04-28 16:59 | 48.62859 | 8.95621 | 37066 ft | 469 kts | 151° |
| 2026-04-28 17:00 | 48.57435 | 9.01106 | 37066 ft | 469 kts | 151° |
| 2026-04-28 17:00 | 48.52006 | 9.06578 | 37067 ft | 469 kts | 151° |
| 2026-04-28 17:01 | 48.46614 | 9.11991 | 37068 ft | 469 kts | 151° |
| 2026-04-28 17:01 | 48.41176 | 9.17447 | 37067 ft | 470 kts | 151° |
| 2026-04-28 17:02 | 48.35729 | 9.22903 | 37065 ft | 470 kts | 151° |
| 2026-04-28 17:02 | 48.30271 | 9.28345 | 37068 ft | 471 kts | 151° |
| 2026-04-28 17:03 | 48.22083 | 9.36477 | 37071 ft | 471 kts | 152° |
| 2026-04-28 17:03 | 48.16611 | 9.41904 | 37074 ft | 471 kts | 152° |
| 2026-04-28 17:04 | 48.08399 | 9.50001 | 37069 ft | 471 kts | 152° |
| 2026-04-28 17:05 | 48.00178 | 9.58133 | 37067 ft | 473 kts | 150° |
| 2026-04-28 17:06 | 47.92200 | 9.66773 | 37065 ft | 475 kts | 148° |
| 2026-04-28 17:06 | 47.84223 | 9.75559 | 37065 ft | 475 kts | 149° |
| 2026-04-28 17:07 | 47.78865 | 9.81288 | 37060 ft | 475 kts | 149° |
| 2026-04-28 17:07 | 47.73490 | 9.86994 | 37059 ft | 475 kts | 149° |
| 2026-04-28 17:08 | 47.68121 | 9.92726 | 37061 ft | 475 kts | 149° |
| 2026-04-28 17:08 | 47.62759 | 9.98461 | 37061 ft | 475 kts | 149° |
| 2026-04-28 17:09 | 47.57395 | 10.04169 | 37059 ft | 475 kts | 149° |
| 2026-04-28 17:09 | 47.52022 | 10.09866 | 37061 ft | 475 kts | 149° |
| 2026-04-28 17:10 | 47.46636 | 10.15556 | 37056 ft | 474 kts | 149° |
| 2026-04-28 17:10 | 47.41223 | 10.21102 | 37060 ft | 472 kts | 152° |
| 2026-04-28 17:11 | 47.35637 | 10.26188 | 37066 ft | 471 kts | 154° |
| 2026-04-28 17:11 | 47.30033 | 10.31098 | 37074 ft | 472 kts | 154° |
| 2026-04-28 17:12 | 47.24410 | 10.36088 | 37081 ft | 473 kts | 154° |
| 2026-04-28 17:12 | 47.18793 | 10.41150 | 37101 ft | 473 kts | 153° |
| 2026-04-28 17:13 | 47.13170 | 10.46211 | 37101 ft | 474 kts | 153° |
| 2026-04-28 17:13 | 47.07535 | 10.51228 | 37105 ft | 473 kts | 156° |
| 2026-04-28 17:14 | 47.01528 | 10.54774 | 37099 ft | 462 kts | 169° |
| 2026-04-28 17:14 | 46.95371 | 10.57554 | 37092 ft | 463 kts | 168° |
| 2026-04-28 17:15 | 46.89219 | 10.60322 | 37108 ft | 463 kts | 168° |
| 2026-04-28 17:15 | 46.83065 | 10.63094 | 37096 ft | 462 kts | 168° |
| 2026-04-28 17:16 | 46.76914 | 10.65870 | 37096 ft | 463 kts | 168° |
| 2026-04-28 17:16 | 46.70703 | 10.68173 | 37100 ft | 455 kts | 179° |
| 2026-04-28 17:17 | 46.64421 | 10.69179 | 37103 ft | 454 kts | 180° |
| 2026-04-28 17:17 | 46.58133 | 10.70206 | 37119 ft | 455 kts | 179° |
| 2026-04-28 17:18 | 46.51886 | 10.71220 | 37053 ft | 454 kts | 179° |
| 2026-04-28 17:18 | 46.48734 | 10.71726 | 36128 ft | 458 kts | 179° |
| 2026-04-28 17:18 | 46.45550 | 10.72234 | 34960 ft | 463 kts | 180° |
| 2026-04-28 17:19 | 46.42322 | 10.72747 | 33700 ft | 469 kts | 180° |
| 2026-04-28 17:19 | 46.39070 | 10.73270 | 32618 ft | 469 kts | 180° |
| 2026-04-28 17:19 | 46.35834 | 10.73794 | 31499 ft | 469 kts | 179° |
| 2026-04-28 17:19 | 46.32585 | 10.74322 | 30329 ft | 469 kts | 179° |
| 2026-04-28 17:20 | 46.29345 | 10.74848 | 29099 ft | 469 kts | 179° |
| 2026-04-28 17:20 | 46.27192 | 10.75193 | 28274 ft | 469 kts | 179° |
| 2026-04-28 17:20 | 46.22871 | 10.75885 | 26709 ft | 464 kts | 178° |
| 2026-04-28 17:20 | 46.19705 | 10.76398 | 25932 ft | 452 kts | 178° |
| 2026-04-28 17:21 | 46.16621 | 10.76899 | 25133 ft | 441 kts | 178° |
| 2026-04-28 17:21 | 46.13593 | 10.77388 | 24352 ft | 436 kts | 178° |
| 2026-04-28 17:21 | 46.10592 | 10.77864 | 23578 ft | 434 kts | 178° |
| 2026-04-28 17:22 | 46.04655 | 10.78796 | 22107 ft | 429 kts | 177° |
| 2026-04-28 17:22 | 46.01694 | 10.79263 | 21402 ft | 426 kts | 177° |
| 2026-04-28 17:22 | 45.98765 | 10.79731 | 20714 ft | 422 kts | 177° |
| 2026-04-28 17:23 | 45.92986 | 10.80647 | 19402 ft | 414 kts | 177° |
| 2026-04-28 17:23 | 45.90133 | 10.81098 | 18784 ft | 410 kts | 177° |
| 2026-04-28 17:23 | 45.87310 | 10.81542 | 18182 ft | 406 kts | 177° |
| 2026-04-28 17:23 | 45.84512 | 10.81980 | 17607 ft | 403 kts | 177° |
| 2026-04-28 17:24 | 45.81746 | 10.82356 | 17046 ft | 396 kts | 181° |
| 2026-04-28 17:24 | 45.79009 | 10.82321 | 16503 ft | 391 kts | 184° |
| 2026-04-28 17:24 | 45.76302 | 10.82247 | 15961 ft | 387 kts | 184° |
| 2026-04-28 17:24 | 45.73619 | 10.82175 | 15401 ft | 385 kts | 184° |
| 2026-04-28 17:25 | 45.70952 | 10.82104 | 14838 ft | 382 kts | 184° |
| 2026-04-28 17:25 | 45.65697 | 10.81950 | 13654 ft | 372 kts | 186° |
| 2026-04-28 17:25 | 45.63168 | 10.81405 | 13053 ft | 365 kts | 196° |
| 2026-04-28 17:26 | 45.60733 | 10.80490 | 12429 ft | 361 kts | 197° |
| 2026-04-28 17:26 | 45.58316 | 10.79581 | 11800 ft | 358 kts | 197° |
| 2026-04-28 17:26 | 45.55915 | 10.78683 | 11148 ft | 355 kts | 196° |
| 2026-04-28 17:26 | 45.53557 | 10.77802 | 10868 ft | 342 kts | 196° |
| 2026-04-28 17:27 | 45.51341 | 10.76976 | 10741 ft | 326 kts | 196° |
| 2026-04-28 17:27 | 45.49193 | 10.76176 | 10625 ft | 312 kts | 196° |
| 2026-04-28 17:27 | 45.47151 | 10.75414 | 10505 ft | 300 kts | 196° |
| 2026-04-28 17:27 | 45.45166 | 10.74669 | 10285 ft | 292 kts | 196° |
| 2026-04-28 17:28 | 45.43220 | 10.73936 | 10043 ft | 288 kts | 196° |
| 2026-04-28 17:28 | 45.39568 | 10.71769 | 9745 ft | 286 kts | 217° |
| 2026-04-28 17:28 | 45.38092 | 10.69873 | 9613 ft | 286 kts | 225° |
| 2026-04-28 17:29 | 45.36675 | 10.67863 | 9101 ft | 291 kts | 225° |
| 2026-04-28 17:29 | 45.35238 | 10.65838 | 8636 ft | 291 kts | 225° |
| 2026-04-28 17:29 | 45.33825 | 10.63800 | 8080 ft | 286 kts | 225° |
| 2026-04-28 17:30 | 45.30632 | 10.61437 | 7797 ft | 244 kts | 186° |
| 2026-04-28 17:30 | 45.27564 | 10.62341 | 7241 ft | 222 kts | 148° |
| 2026-04-28 17:30 | 45.26389 | 10.63739 | 6957 ft | 219 kts | 130° |
| 2026-04-28 17:31 | 45.25463 | 10.65463 | 6437 ft | 224 kts | 118° |
| 2026-04-28 17:31 | 45.26025 | 10.69409 | 5521 ft | 215 kts | 44° |
| 2026-04-28 17:32 | 45.28153 | 10.72317 | 4390 ft | 207 kts | 45° |
| 2026-04-28 17:32 | 45.29140 | 10.73733 | 3863 ft | 202 kts | 45° |
| 2026-04-28 17:32 | 45.30118 | 10.75147 | 3333 ft | 197 kts | 45° |
| 2026-04-28 17:32 | 45.31040 | 10.76480 | 2838 ft | 181 kts | 45° |
| 2026-04-28 17:33 | 45.31884 | 10.77702 | 2378 ft | 170 kts | 46° |
| 2026-04-28 17:33 | 45.32677 | 10.78850 | 2016 ft | 158 kts | 46° |
| 2026-04-28 17:33 | 45.33405 | 10.79905 | 1774 ft | 144 kts | 47° |
| 2026-04-28 17:33 | 45.33639 | 10.80244 | 1705 ft | 140 kts | 46° |
| 2026-04-28 17:34 | 45.34730 | 10.81827 | 1388 ft | 131 kts | 47° |
| 2026-04-28 17:34 | 45.35365 | 10.82748 | 1219 ft | 130 kts | 47° |
| 2026-04-28 17:34 | 45.35988 | 10.83661 | 1041 ft | 128 kts | 48° |
| 2026-04-28 17:34 | 45.36616 | 10.84558 | 829 ft | 127 kts | 47° |
| 2026-04-28 17:35 | 45.37244 | 10.85461 | 694 ft | 129 kts | 47° |
| 2026-04-28 17:35 | 45.37874 | 10.86374 | 526 ft | 130 kts | 46° |
| 2026-04-28 17:35 | 45.38500 | 10.87293 | 333 ft | 129 kts | 47° |
| 2026-04-28 17:35 | 45.39107 | 10.88182 | 241 ft | 115 kts | 46° |
| 2026-04-28 17:36 | 45.39523 | 10.88787 | 239 ft | 61 kts | 45° |
| 2026-04-28 17:36 | 45.39784 | 10.89167 | 237 ft | 48 kts | 46° |
| 2026-04-28 17:36 | 45.39990 | 10.89469 | 238 ft | 37 kts | 46° |
| 2026-04-28 17:36 | 45.40156 | 10.89709 | 240 ft | 31 kts | 45° |
| 2026-04-28 17:37 | 45.40275 | 10.89916 | 238 ft | 25 kts | 71° |
| 2026-04-28 17:37 | 45.40313 | 10.90106 | 237 ft | 19 kts | 75° |
| 2026-04-28 17:37 | 45.40338 | 10.90268 | 237 ft | 14 kts | 100° |
| 2026-04-28 17:37 | 45.40272 | 10.90363 | 237 ft | 14 kts | 137° |
| 2026-04-28 17:38 | 45.40233 | 10.90431 | 237 ft | 4 kts | 114° |
| 2026-04-28 17:38 | 45.40228 | 10.90440 | 237 ft | 2 kts | 129° |
| 2026-04-28 17:38 | 45.40215 | 10.90459 | 237 ft | 3 kts | 136° |
| 2026-04-28 17:38 | 45.40207 | 10.90470 | 237 ft | 0 kts | 136° |